Time;durP1;ratioP1;P1;durP2;ratioP2;P2;SDS_P1;SDS_P2;PMS_P1;PMS_P2;Temp;Humidity;BMP_temperature;BMP_pressure;BME280_temperature;BME280_humidity;BME280_pressure;Samples;Min_cycle;Max_cycle;Signal;HPM_P1;HPM_P2
2021/12/30 00:00:38;;;;;;;11.40;2.10;;;15.10;95.10;;;;;;5013797;28;20041;-64
2021/12/30 00:03:05;;;;;;;11.30;2.10;;;15.10;95.00;;;;;;5013677;28;20478;-64
2021/12/30 00:05:31;;;;;;;11.43;2.35;;;15.00;95.00;;;;;;4983784;28;20043;-64
2021/12/30 00:07:56;;;;;;;17.23;2.30;;;15.00;95.10;;;;;;4951222;28;20081;-64
2021/12/30 00:10:22;;;;;;;10.30;2.17;;;15.00;95.00;;;;;;4954242;28;20047;-64
2021/12/30 00:12:51;;;;;;;11.10;2.60;;;15.00;95.00;;;;;;4952163;28;20030;-64
2021/12/30 00:15:17;;;;;;;13.75;2.65;;;15.00;95.00;;;;;;4952092;28;20469;-64
2021/12/30 00:17:43;;;;;;;12.82;2.72;;;15.00;95.40;;;;;;4952028;28;20090;-65
2021/12/30 00:20:10;;;;;;;12.60;2.20;;;14.90;95.00;;;;;;4950025;28;24477;-65
2021/12/30 00:22:37;;;;;;;17.15;2.90;;;14.90;95.00;;;;;;4954987;28;20031;-65
2021/12/30 00:25:04;;;;;;;17.50;2.72;;;14.90;95.10;;;;;;4953032;28;20023;-64
2021/12/30 00:27:30;;;;;;;16.17;2.58;;;14.80;95.00;;;;;;4953360;28;20031;-66
2021/12/30 00:29:55;;;;;;;14.23;2.80;;;14.80;95.00;;;;;;4951996;28;20080;-65
2021/12/30 00:32:21;;;;;;;11.50;2.55;;;14.80;95.00;;;;;;4949172;28;20074;-65
2021/12/30 00:34:47;;;;;;;15.13;2.60;;;14.80;95.00;;;;;;4954863;28;20031;-65
2021/12/30 00:37:13;;;;;;;18.08;2.80;;;14.80;95.00;;;;;;4952859;28;20114;-65
2021/12/30 00:39:39;;;;;;;14.00;2.80;;;14.80;95.00;;;;;;4953188;28;20114;-64
2021/12/30 00:42:05;;;;;;;11.18;2.35;;;14.70;95.00;;;;;;4951572;28;20568;-64
2021/12/30 00:44:31;;;;;;;15.15;2.78;;;14.70;95.10;;;;;;4950420;28;20027;-65
2021/12/30 00:47:00;;;;;;;12.27;2.40;;;14.70;95.00;;;;;;4963962;28;20156;-64
2021/12/30 00:49:26;;;;;;;15.82;2.70;;;14.70;95.10;;;;;;4953981;28;20039;-65
2021/12/30 00:51:52;;;;;;;13.60;2.40;;;14.70;95.10;;;;;;4952151;28;20046;-65
2021/12/30 00:54:19;;;;;;;20.17;3.53;;;14.70;95.10;;;;;;4952380;28;20027;-65
2021/12/30 00:56:45;;;;;;;15.07;2.47;;;14.70;95.00;;;;;;4954087;28;20160;-64
2021/12/30 00:59:11;;;;;;;16.25;2.90;;;14.70;95.00;;;;;;4951287;28;20040;-64
2021/12/30 01:01:37;;;;;;;15.68;2.63;;;14.70;95.00;;;;;;4958145;28;20042;-64
2021/12/30 01:04:03;;;;;;;12.95;2.25;;;14.70;95.00;;;;;;4954282;28;20403;-65
2021/12/30 01:06:29;;;;;;;13.63;2.47;;;14.70;94.90;;;;;;4955883;28;20491;-64
2021/12/30 01:08:56;;;;;;;14.38;3.30;;;14.70;94.90;;;;;;4956150;28;20046;-64
2021/12/30 01:11:23;;;;;;;13.35;2.38;;;14.70;94.90;;;;;;4951741;28;20040;-64
2021/12/30 01:13:58;;;;;;;12.38;2.00;;;14.70;95.00;;;;;;4957275;28;20053;-64
2021/12/30 01:16:24;;;;;;;10.13;2.00;;;14.70;95.00;;;;;;4956558;28;20051;-64
2021/12/30 01:18:59;;;;;;;14.23;2.15;;;14.70;95.00;;;;;;4954992;28;20077;-64
2021/12/30 01:21:27;;;;;;;15.10;2.88;;;14.70;94.90;;;;;;4955835;28;20031;-65
2021/12/30 01:23:55;;;;;;;8.82;1.90;;;14.70;94.90;;;;;;4956126;28;20466;-64
2021/12/30 01:26:21;;;;;;;12.30;2.20;;;14.70;94.80;;;;;;4951930;28;20126;-64
2021/12/30 01:28:49;;;;;;;10.70;2.50;;;14.70;94.80;;;;;;4957677;28;20058;-65
2021/12/30 01:31:16;;;;;;;11.20;2.22;;;14.60;94.70;;;;;;4954677;28;20042;-64
2021/12/30 01:33:43;;;;;;;11.65;1.83;;;14.60;94.80;;;;;;4953891;28;20031;-65
2021/12/30 01:36:10;;;;;;;15.75;2.40;;;14.60;94.80;;;;;;4955612;28;20019;-64
2021/12/30 01:38:36;;;;;;;10.43;2.33;;;14.60;94.80;;;;;;4953738;28;20051;-65
2021/12/30 01:41:06;;;;;;;7.40;1.70;;;14.60;94.90;;;;;;4953993;28;20085;-65
2021/12/30 01:43:35;;;;;;;8.93;1.67;;;14.50;94.80;;;;;;4955877;28;20534;-65
2021/12/30 01:46:01;;;;;;;10.27;1.88;;;14.50;94.80;;;;;;4960514;28;20058;-64
2021/12/30 01:48:27;;;;;;;12.57;2.72;;;14.50;94.80;;;;;;4961282;28;20029;-64
2021/12/30 01:50:53;;;;;;;10.40;1.83;;;14.50;94.70;;;;;;4955501;28;20117;-64
2021/12/30 01:53:19;;;;;;;9.88;2.30;;;14.50;94.80;;;;;;4951427;28;20020;-64
2021/12/30 01:55:46;;;;;;;9.75;1.80;;;14.50;94.80;;;;;;4957321;28;20035;-64
2021/12/30 01:58:13;;;;;;;10.15;1.73;;;14.50;94.80;;;;;;4955432;28;20054;-64
2021/12/30 02:00:42;;;;;;;8.10;2.35;;;14.50;94.80;;;;;;4955373;28;20499;-64
2021/12/30 02:03:09;;;;;;;11.60;2.22;;;14.50;94.70;;;;;;4954828;28;20030;-64
2021/12/30 02:05:37;;;;;;;11.48;2.03;;;14.50;94.80;;;;;;4952670;28;20027;-64
2021/12/30 02:08:03;;;;;;;7.13;1.75;;;14.50;94.80;;;;;;4953526;28;20084;-64
2021/12/30 02:10:29;;;;;;;8.75;1.60;;;14.50;94.80;;;;;;4956805;28;20043;-64
2021/12/30 02:12:55;;;;;;;10.80;2.40;;;14.50;94.60;;;;;;4955280;28;20029;-64
2021/12/30 02:15:22;;;;;;;7.18;1.67;;;14.50;94.70;;;;;;4954936;28;20114;-64
2021/12/30 02:17:49;;;;;;;8.52;2.05;;;14.50;94.60;;;;;;4953039;28;20027;-64
2021/12/30 02:20:41;;;;;;;9.23;2.10;;;14.40;94.50;;;;;;4951249;28;20036;-64
2021/12/30 02:23:07;;;;;;;10.27;1.83;;;14.40;94.60;;;;;;4965107;28;20080;-64
2021/12/30 02:25:34;;;;;;;7.50;2.08;;;14.40;94.60;;;;;;4956848;28;20104;-64
2021/12/30 02:28:00;;;;;;;10.25;2.00;;;14.40;94.60;;;;;;4955005;28;20034;-64
2021/12/30 02:30:25;;;;;;;7.25;1.50;;;14.30;94.70;;;;;;4954857;28;20027;-64
2021/12/30 02:32:51;;;;;;;7.65;2.00;;;14.40;94.70;;;;;;4954291;28;20399;-64
2021/12/30 02:35:17;;;;;;;8.75;1.50;;;14.30;94.60;;;;;;4949494;28;20044;-64
2021/12/30 02:37:42;;;;;;;9.82;2.08;;;14.30;94.50;;;;;;4956799;28;20031;-64
2021/12/30 02:40:09;;;;;;;8.88;1.83;;;14.30;94.60;;;;;;4954746;28;20062;-64
2021/12/30 02:42:35;;;;;;;13.30;2.00;;;14.20;94.60;;;;;;4954904;28;20019;-64
2021/12/30 02:45:00;;;;;;;9.80;1.85;;;14.20;94.50;;;;;;4954696;28;20033;-64
2021/12/30 02:47:26;;;;;;;10.32;2.13;;;14.20;94.50;;;;;;4962491;28;20027;-64
2021/12/30 02:49:52;;;;;;;10.32;1.80;;;14.10;94.50;;;;;;4955400;28;20088;-64
2021/12/30 02:52:17;;;;;;;8.25;1.90;;;14.10;94.60;;;;;;4955175;28;20027;-64
2021/12/30 02:54:43;;;;;;;10.38;2.05;;;14.10;94.50;;;;;;4954380;28;20034;-64
2021/12/30 02:57:10;;;;;;;8.80;1.58;;;14.10;94.50;;;;;;4954602;28;20019;-65
2021/12/30 02:59:36;;;;;;;7.93;1.40;;;14.10;94.40;;;;;;4952494;28;20071;-64
2021/12/30 03:02:04;;;;;;;10.75;1.75;;;14.00;94.60;;;;;;4952350;28;20038;-65
2021/12/30 03:04:30;;;;;;;7.10;1.77;;;14.00;94.60;;;;;;4956236;28;20027;-65
2021/12/30 03:06:57;;;;;;;11.13;1.73;;;14.10;94.70;;;;;;4954312;28;20123;-64
2021/12/30 03:09:23;;;;;;;7.90;1.98;;;14.10;94.70;;;;;;4954371;28;20023;-65
2021/12/30 03:11:49;;;;;;;9.38;1.83;;;14.00;94.50;;;;;;4953826;28;20130;-65
2021/12/30 03:14:15;;;;;;;11.88;2.17;;;14.00;94.60;;;;;;4950586;28;20102;-64
2021/12/30 03:16:42;;;;;;;8.73;2.17;;;14.10;94.60;;;;;;4954936;28;20034;-65
2021/12/30 03:19:08;;;;;;;9.95;1.80;;;14.10;94.60;;;;;;4954109;28;20027;-64
2021/12/30 03:21:34;;;;;;;7.55;1.55;;;14.00;94.40;;;;;;4954159;28;20038;-65
2021/12/30 03:24:02;;;;;;;13.30;3.00;;;14.00;94.50;;;;;;4954072;28;20027;-65
2021/12/30 03:26:28;;;;;;;9.20;2.00;;;14.00;94.40;;;;;;4950912;28;20038;-64
2021/12/30 03:28:54;;;;;;;9.80;2.15;;;14.00;94.60;;;;;;4954285;28;20039;-64
2021/12/30 03:31:21;;;;;;;10.43;1.90;;;14.00;94.60;;;;;;4954371;28;20031;-64
2021/12/30 03:33:47;;;;;;;10.50;2.00;;;14.10;94.60;;;;;;4952863;28;20157;-64
2021/12/30 03:36:15;;;;;;;10.60;2.10;;;14.10;94.50;;;;;;4951119;28;20042;-65
2021/12/30 03:38:44;;;;;;;12.50;1.92;;;14.00;94.30;;;;;;4952499;28;20027;-65
2021/12/30 03:41:12;;;;;;;12.25;2.20;;;14.00;94.40;;;;;;4950746;28;20492;-64
2021/12/30 03:43:38;;;;;;;10.70;2.53;;;14.00;94.60;;;;;;4955428;28;20028;-65
2021/12/30 03:46:05;;;;;;;7.93;1.88;;;14.10;94.70;;;;;;4959168;28;20027;-65
2021/12/30 03:48:34;;;;;;;11.65;2.97;;;14.10;94.50;;;;;;4958494;28;20408;-64
2021/12/30 03:51:06;;;;;;;12.32;1.90;;;14.00;94.50;;;;;;4953771;28;20027;-65
2021/12/30 03:53:39;;;;;;;10.57;2.30;;;14.10;94.60;;;;;;4951093;28;20020;-64
2021/12/30 03:56:09;;;;;;;11.40;1.57;;;14.10;94.50;;;;;;4951509;28;20461;-65
2021/12/30 03:58:36;;;;;;;5.68;1.40;;;14.10;94.70;;;;;;4952744;28;20032;-65
2021/12/30 04:01:02;;;;;;;9.23;1.83;;;14.20;95.00;;;;;;4953537;28;20057;-64
2021/12/30 04:03:28;;;;;;;7.50;1.27;;;14.20;94.60;;;;;;4952255;28;20078;-65
2021/12/30 04:05:54;;;;;;;5.60;1.30;;;14.20;94.60;;;;;;4953603;28;20498;-64
2021/12/30 04:08:20;;;;;;;11.70;2.20;;;14.30;94.70;;;;;;4949490;28;20396;-64
2021/12/30 04:10:45;;;;;;;8.07;1.80;;;14.30;94.70;;;;;;4953936;28;20126;-64
2021/12/30 04:13:11;;;;;;;10.35;1.63;;;14.30;94.60;;;;;;4953071;28;20031;-64
2021/12/30 04:15:37;;;;;;;9.75;1.70;;;14.30;94.60;;;;;;4953383;28;20453;-64
2021/12/30 04:18:02;;;;;;;11.63;2.00;;;14.30;94.60;;;;;;4953275;28;20018;-64
2021/12/30 04:20:28;;;;;;;10.48;1.75;;;14.30;94.60;;;;;;4950041;28;20500;-64
2021/12/30 04:22:54;;;;;;;8.77;1.27;;;14.30;94.60;;;;;;4953597;28;20449;-64
2021/12/30 04:25:19;;;;;;;8.48;1.83;;;14.30;94.50;;;;;;4954099;28;20031;-64
2021/12/30 04:27:45;;;;;;;9.40;1.60;;;14.40;94.60;;;;;;4953019;28;20023;-64
2021/12/30 04:30:13;;;;;;;10.18;1.80;;;14.40;94.50;;;;;;4956750;28;20031;-65
2021/12/30 04:32:41;;;;;;;11.20;1.70;;;14.40;94.50;;;;;;4954834;28;20019;-65
2021/12/30 04:35:08;;;;;;;8.82;1.65;;;14.40;94.50;;;;;;4954037;28;20096;-65
2021/12/30 04:37:34;;;;;;;10.95;2.15;;;14.40;94.70;;;;;;4957324;28;20054;-65
2021/12/30 04:40:01;;;;;;;8.57;1.60;;;14.40;94.50;;;;;;4956543;28;20148;-65
2021/12/30 04:42:28;;;;;;;7.97;1.48;;;14.40;94.60;;;;;;4956351;28;20412;-65
2021/12/30 04:44:54;;;;;;;8.02;1.40;;;14.40;94.50;;;;;;4956315;28;20033;-64
2021/12/30 04:47:20;;;;;;;11.82;2.03;;;14.40;94.50;;;;;;4963944;28;20450;-65
2021/12/30 04:49:46;;;;;;;6.53;1.50;;;14.40;94.60;;;;;;4957148;28;20020;-65
2021/12/30 04:52:12;;;;;;;7.13;1.50;;;14.40;94.50;;;;;;4956148;28;20050;-64
2021/12/30 04:54:37;;;;;;;10.18;1.80;;;14.40;94.60;;;;;;4956339;28;20443;-64
2021/12/30 04:57:03;;;;;;;8.77;1.55;;;14.50;94.60;;;;;;4956020;28;20390;-64
2021/12/30 04:59:29;;;;;;;7.97;1.90;;;14.50;94.60;;;;;;4953083;28;20042;-64
2021/12/30 05:01:55;;;;;;;6.40;1.50;;;14.50;94.60;;;;;;4956373;28;20089;-64
2021/12/30 05:04:20;;;;;;;7.80;1.60;;;14.50;94.50;;;;;;4956823;28;20047;-64
2021/12/30 05:06:46;;;;;;;9.15;1.65;;;14.50;94.60;;;;;;4956276;28;20039;-64
2021/12/30 05:09:12;;;;;;;10.32;1.45;;;14.50;94.50;;;;;;4956030;28;20113;-64
2021/12/30 05:11:41;;;;;;;8.00;1.55;;;14.50;94.60;;;;;;4953692;28;20047;-64
2021/12/30 05:14:11;;;;;;;8.13;1.40;;;14.50;94.60;;;;;;4953422;28;20024;-64
2021/12/30 05:16:37;;;;;;;6.68;1.50;;;14.50;94.50;;;;;;4957850;28;20614;-64
2021/12/30 05:19:04;;;;;;;10.48;1.58;;;14.50;94.50;;;;;;4956050;28;20117;-64
2021/12/30 05:21:30;;;;;;;8.07;1.35;;;14.50;94.60;;;;;;4955947;28;20162;-64
2021/12/30 05:23:56;;;;;;;12.18;1.33;;;14.50;94.50;;;;;;4955897;28;20055;-64
2021/12/30 05:26:27;;;;;;;8.23;1.17;;;14.60;94.60;;;;;;4946518;28;20043;-65
2021/12/30 05:28:53;;;;;;;7.55;1.27;;;14.60;94.60;;;;;;4956568;28;20047;-64
2021/12/30 05:31:19;;;;;;;6.28;1.20;;;14.60;94.60;;;;;;4955350;28;20023;-65
2021/12/30 05:33:44;;;;;;;11.48;1.52;;;14.60;94.60;;;;;;4954679;28;20043;-64
2021/12/30 05:36:10;;;;;;;5.57;1.13;;;14.70;94.60;;;;;;4955934;28;20031;-64
2021/12/30 05:38:36;;;;;;;5.88;1.38;;;14.60;94.50;;;;;;4953894;28;20031;-65
2021/12/30 05:41:02;;;;;;;10.13;2.80;;;14.60;94.90;;;;;;4953207;28;20031;-64
2021/12/30 05:43:27;;;;;;;6.85;1.60;;;14.70;94.50;;;;;;4957434;28;20038;-64
2021/12/30 05:45:53;;;;;;;7.75;1.40;;;14.70;94.60;;;;;;4955651;28;20050;-64
2021/12/30 05:48:19;;;;;;;7.97;1.45;;;14.70;94.50;;;;;;4955813;28;20407;-64
2021/12/30 05:50:44;;;;;;;9.88;1.48;;;14.70;94.50;;;;;;4954772;28;20027;-64
2021/12/30 05:53:10;;;;;;;6.32;1.33;;;14.70;94.60;;;;;;4952564;28;20035;-65
2021/12/30 05:55:36;;;;;;;8.32;2.83;;;14.70;94.50;;;;;;4957187;28;20035;-64
2021/12/30 05:58:01;;;;;;;6.30;1.73;;;14.70;94.60;;;;;;4954396;28;20031;-64
2021/12/30 06:00:29;;;;;;;5.75;1.20;;;14.70;94.50;;;;;;4955464;28;20042;-64
2021/12/30 06:02:54;;;;;;;9.60;1.70;;;14.70;94.60;;;;;;4955618;28;20080;-64
2021/12/30 06:05:20;;;;;;;7.22;1.83;;;14.70;94.50;;;;;;4951375;28;20032;-64
2021/12/30 06:07:46;;;;;;;4.65;1.23;;;14.70;95.00;;;;;;4957415;28;20225;-64
2021/12/30 06:10:12;;;;;;;9.38;1.63;;;14.70;94.60;;;;;;4954751;28;20051;-64
2021/12/30 06:12:38;;;;;;;3.85;1.10;;;14.70;94.70;;;;;;4955693;28;20035;-64
2021/12/30 06:15:04;;;;;;;6.53;1.40;;;14.70;94.70;;;;;;4955505;28;20488;-64
2021/12/30 06:17:30;;;;;;;6.13;1.33;;;14.70;94.70;;;;;;4951203;28;20035;-64
2021/12/30 06:19:56;;;;;;;8.40;1.60;;;14.70;94.70;;;;;;4955391;28;20038;-64
2021/12/30 06:22:22;;;;;;;8.70;1.10;;;14.70;94.60;;;;;;4955834;28;20058;-64
2021/12/30 06:24:47;;;;;;;5.28;1.15;;;14.70;94.60;;;;;;4954914;28;20027;-64
2021/12/30 06:27:13;;;;;;;5.43;1.25;;;14.70;94.70;;;;;;4955160;28;20041;-64
2021/12/30 06:29:39;;;;;;;7.82;1.40;;;14.70;94.60;;;;;;4953415;28;20031;-64
2021/12/30 06:32:06;;;;;;;6.60;1.30;;;14.70;94.60;;;;;;4953018;28;20102;-64
2021/12/30 06:34:32;;;;;;;9.43;1.13;;;14.70;94.60;;;;;;4955097;28;20042;-64
2021/12/30 06:36:58;;;;;;;5.38;1.23;;;14.60;94.60;;;;;;4953950;28;20019;-64
2021/12/30 06:39:24;;;;;;;10.88;2.10;;;14.60;95.00;;;;;;4954636;28;20451;-64
2021/12/30 06:41:50;;;;;;;5.25;0.98;;;14.60;94.60;;;;;;4954672;28;20054;-64
2021/12/30 06:44:15;;;;;;;6.88;1.23;;;14.60;94.60;;;;;;4951074;28;20061;-64
2021/12/30 06:46:51;;;;;;;5.28;1.17;;;14.60;94.60;;;;;;4956818;28;20233;-64
2021/12/30 06:49:17;;;;;;;7.65;1.30;;;14.60;94.60;;;;;;4955384;28;20023;-64
2021/12/30 06:51:43;;;;;;;3.63;1.00;;;14.60;94.70;;;;;;4953679;28;20038;-64
2021/12/30 06:54:09;;;;;;;5.40;1.30;;;14.60;94.60;;;;;;4954268;28;20488;-64
2021/12/30 06:56:35;;;;;;;5.63;1.00;;;14.60;94.60;;;;;;4952344;28;20074;-65
2021/12/30 06:59:02;;;;;;;6.32;1.20;;;14.60;94.50;;;;;;4953433;28;20107;-65
2021/12/30 07:01:31;;;;;;;6.35;1.27;;;14.60;95.00;;;;;;4987124;28;20063;-65
2021/12/30 07:03:57;;;;;;;5.68;1.33;;;14.60;94.60;;;;;;4954571;28;20553;-64
2021/12/30 07:06:23;;;;;;;7.03;1.30;;;14.50;94.50;;;;;;4954497;28;20027;-64
2021/12/30 07:08:49;;;;;;;9.05;1.10;;;14.50;94.60;;;;;;4952392;28;20467;-65
2021/12/30 07:11:14;;;;;;;8.05;1.40;;;14.60;94.50;;;;;;4950645;28;20047;-65
2021/12/30 07:13:40;;;;;;;5.40;1.23;;;14.50;94.50;;;;;;4956490;28;20382;-65
2021/12/30 07:16:06;;;;;;;6.75;1.33;;;14.50;94.60;;;;;;4954484;28;20454;-65
2021/12/30 07:18:32;;;;;;;7.15;1.40;;;14.50;94.70;;;;;;4954517;28;20106;-65
2021/12/30 07:20:58;;;;;;;11.00;1.30;;;14.50;94.80;;;;;;4954099;28;20499;-65
2021/12/30 07:23:23;;;;;;;7.10;1.52;;;14.50;94.70;;;;;;4950431;28;20028;-65
2021/12/30 07:25:49;;;;;;;7.00;1.50;;;14.50;94.70;;;;;;4954723;28;20027;-66
2021/12/30 07:28:15;;;;;;;5.35;1.17;;;14.50;94.50;;;;;;4954176;28;20082;-65
2021/12/30 07:30:40;;;;;;;6.07;0.93;;;14.50;94.70;;;;;;4954220;28;20054;-64
2021/12/30 07:33:07;;;;;;;9.15;1.55;;;14.50;95.00;;;;;;4952797;28;20069;-65
2021/12/30 07:35:35;;;;;;;4.38;1.00;;;14.50;94.60;;;;;;4950960;28;20118;-65
2021/12/30 07:38:01;;;;;;;7.43;1.30;;;14.50;94.70;;;;;;4952401;28;20068;-65
2021/12/30 07:40:27;;;;;;;6.60;1.20;;;14.50;94.60;;;;;;4954460;28;20126;-65
2021/12/30 07:42:53;;;;;;;6.25;1.27;;;14.50;94.60;;;;;;4952531;28;20019;-65
2021/12/30 07:45:19;;;;;;;5.38;1.30;;;14.50;94.60;;;;;;4953931;28;20035;-65
2021/12/30 07:47:46;;;;;;;5.50;0.98;;;14.50;94.60;;;;;;4952640;28;20031;-65
2021/12/30 07:50:13;;;;;;;7.25;1.60;;;14.60;94.50;;;;;;4949268;28;20032;-65
2021/12/30 07:52:39;;;;;;;7.32;1.42;;;14.50;94.60;;;;;;4955527;28;20027;-65
2021/12/30 07:55:06;;;;;;;5.60;1.10;;;14.60;94.60;;;;;;4953539;28;20023;-65
2021/12/30 07:57:32;;;;;;;7.03;1.52;;;14.60;94.50;;;;;;4953156;28;20027;-65
2021/12/30 07:59:57;;;;;;;6.65;1.23;;;14.60;94.60;;;;;;4953671;28;20054;-64
2021/12/30 08:02:23;;;;;;;6.43;1.30;;;14.60;94.50;;;;;;4948531;28;20062;-64
2021/12/30 08:04:49;;;;;;;6.50;1.17;;;14.60;94.50;;;;;;4954490;28;20066;-64
2021/12/30 08:07:20;;;;;;;4.32;1.05;;;14.60;94.50;;;;;;4953497;28;20035;-64
2021/12/30 08:09:45;;;;;;;4.75;1.25;;;14.60;94.60;;;;;;4952846;28;20031;-64
2021/12/30 08:12:11;;;;;;;6.40;1.33;;;14.60;94.50;;;;;;4952050;28;20112;-65
2021/12/30 08:14:37;;;;;;;7.85;1.38;;;14.60;94.50;;;;;;4951412;28;20093;-64
2021/12/30 08:17:02;;;;;;;5.55;1.08;;;14.60;94.50;;;;;;4950927;28;20035;-64
2021/12/30 08:19:28;;;;;;;7.72;1.20;;;14.60;94.50;;;;;;4954114;28;20046;-64
2021/12/30 08:21:54;;;;;;;6.72;1.40;;;14.60;94.50;;;;;;4953389;28;20145;-65
2021/12/30 08:24:21;;;;;;;6.47;1.10;;;14.60;94.40;;;;;;4953529;28;20024;-64
2021/12/30 08:26:47;;;;;;;8.73;1.38;;;14.60;94.50;;;;;;4952160;28;20099;-64
2021/12/30 08:29:12;;;;;;;10.13;1.58;;;14.60;94.40;;;;;;4950266;28;20496;-64
2021/12/30 08:31:38;;;;;;;7.60;1.40;;;14.60;94.40;;;;;;4955409;28;20031;-64
2021/12/30 08:34:04;;;;;;;8.25;1.50;;;14.60;94.50;;;;;;4952970;28;20019;-64
2021/12/30 08:36:30;;;;;;;4.75;1.40;;;14.60;94.40;;;;;;4953491;28;20039;-64
2021/12/30 08:38:56;;;;;;;6.78;1.27;;;14.60;94.30;;;;;;4952129;28;20064;-64
2021/12/30 08:41:23;;;;;;;5.32;1.20;;;14.60;94.40;;;;;;4948049;28;20039;-64
2021/12/30 08:43:48;;;;;;;5.93;1.23;;;14.60;94.40;;;;;;4954972;28;20027;-64
2021/12/30 08:46:14;;;;;;;5.95;1.20;;;14.60;94.30;;;;;;4953061;28;20511;-64
2021/12/30 08:48:40;;;;;;;8.10;1.40;;;14.60;94.30;;;;;;4953082;28;20030;-65
2021/12/30 08:51:08;;;;;;;7.90;1.42;;;14.60;94.30;;;;;;4953187;28;20038;-64
2021/12/30 08:53:40;;;;;;;7.85;1.45;;;14.60;94.40;;;;;;4950372;28;20023;-65
2021/12/30 08:56:07;;;;;;;7.95;1.25;;;14.60;94.40;;;;;;4952722;28;20089;-65
2021/12/30 08:58:32;;;;;;;6.65;1.55;;;14.60;94.40;;;;;;4955098;28;20052;-65
2021/12/30 09:00:58;;;;;;;6.72;1.65;;;14.70;94.40;;;;;;4952903;28;20569;-65
2021/12/30 09:03:23;;;;;;;8.57;1.50;;;14.70;94.40;;;;;;4952684;28;20103;-65
2021/12/30 09:05:49;;;;;;;11.43;1.60;;;14.70;94.40;;;;;;4952536;28;20031;-65
2021/12/30 09:08:15;;;;;;;6.70;1.80;;;14.70;94.30;;;;;;4949296;28;20023;-65
2021/12/30 09:10:45;;;;;;;7.35;1.30;;;14.70;94.30;;;;;;4954769;28;20086;-66
2021/12/30 09:13:11;;;;;;;7.13;1.40;;;14.80;94.30;;;;;;4952714;28;20027;-64
2021/12/30 09:15:38;;;;;;;6.57;1.25;;;14.80;94.30;;;;;;4952869;28;20038;-64
2021/12/30 09:18:05;;;;;;;3.53;1.15;;;14.80;94.20;;;;;;4955953;28;20114;-64
2021/12/30 09:20:31;;;;;;;4.28;1.25;;;14.80;94.10;;;;;;4953216;28;20027;-66
2021/12/30 09:22:57;;;;;;;4.68;0.95;;;14.80;94.30;;;;;;4956141;28;20449;-65
2021/12/30 09:25:24;;;;;;;3.92;1.00;;;14.80;94.10;;;;;;4956920;28;20042;-65
2021/12/30 09:27:52;;;;;;;5.40;0.82;;;14.80;94.10;;;;;;4956004;28;20028;-64
2021/12/30 09:30:18;;;;;;;8.55;1.45;;;14.80;94.30;;;;;;4956162;28;20031;-65
2021/12/30 09:32:46;;;;;;;5.20;1.40;;;14.80;94.20;;;;;;4954524;28;20100;-65
2021/12/30 09:35:13;;;;;;;6.82;1.20;;;14.80;94.20;;;;;;4952732;28;20038;-65
2021/12/30 09:37:40;;;;;;;5.78;1.13;;;14.90;94.10;;;;;;4957785;28;20101;-65
2021/12/30 09:40:13;;;;;;;7.35;1.25;;;14.80;94.10;;;;;;4955948;28;20204;-65
2021/12/30 09:42:40;;;;;;;9.05;1.50;;;14.90;94.20;;;;;;4954622;28;20034;-66
2021/12/30 09:45:07;;;;;;;6.47;1.35;;;14.90;93.90;;;;;;4955794;28;20461;-66
2021/12/30 09:47:33;;;;;;;4.97;1.10;;;14.90;94.20;;;;;;4950855;28;20067;-65
2021/12/30 09:49:59;;;;;;;7.78;1.40;;;15.00;94.30;;;;;;4954855;28;20020;-65
2021/12/30 09:52:26;;;;;;;6.03;1.30;;;15.10;94.00;;;;;;4954481;28;20027;-65
2021/12/30 09:54:52;;;;;;;5.13;1.00;;;15.10;93.90;;;;;;4964186;28;20057;-66
2021/12/30 09:57:18;;;;;;;5.45;1.17;;;15.20;94.10;;;;;;4962543;28;20600;-65
2021/12/30 09:59:44;;;;;;;7.88;1.17;;;15.20;93.90;;;;;;4952843;28;20447;-65
2021/12/30 10:02:09;;;;;;;5.05;1.45;;;15.20;94.10;;;;;;4952337;28;20515;-65
2021/12/30 10:04:35;;;;;;;4.55;1.15;;;15.30;94.00;;;;;;4956340;28;20031;-65
2021/12/30 10:07:16;;;;;;;5.43;1.17;;;15.30;93.90;;;;;;4955613;28;20055;-65
2021/12/30 10:09:55;;;;;;;6.88;1.10;;;15.40;94.00;;;;;;4955175;28;20115;-65
2021/12/30 10:12:44;;;;;;;4.97;1.33;;;15.30;93.60;;;;;;4954086;28;20031;-65
2021/12/30 10:15:10;;;;;;;6.07;1.13;;;15.40;94.20;;;;;;4952146;28;20045;-66
2021/12/30 10:17:36;;;;;;;6.25;1.30;;;15.40;93.80;;;;;;4952880;28;20090;-65
2021/12/30 10:20:14;;;;;;;6.20;1.40;;;15.40;93.50;;;;;;4954281;28;20055;-65
2021/12/30 10:22:40;;;;;;;6.65;1.50;;;15.40;93.60;;;;;;4956245;28;20031;-65
2021/12/30 10:25:25;;;;;;;4.50;1.10;;;15.40;93.50;;;;;;4955297;28;20047;-65
2021/12/30 10:27:51;;;;;;;6.32;1.60;;;15.50;93.70;;;;;;4955016;28;20027;-65
2021/12/30 10:30:36;;;;;;;6.18;1.38;;;15.50;93.40;;;;;;4954838;28;20042;-65
2021/12/30 10:33:17;;;;;;;5.38;1.00;;;15.50;93.70;;;;;;4955086;28;20039;-65
2021/12/30 10:35:43;;;;;;;6.10;1.20;;;15.50;93.40;;;;;;4950708;28;20023;-65
2021/12/30 10:38:11;;;;;;;6.07;1.40;;;15.50;93.50;;;;;;4951320;28;20081;-65
2021/12/30 10:40:40;;;;;;;3.63;1.10;;;15.60;93.40;;;;;;4955020;28;20043;-65
2021/12/30 10:43:33;;;;;;;7.78;1.33;;;15.50;93.30;;;;;;4954993;28;20034;-65
2021/12/30 10:46:11;;;;;;;6.20;1.40;;;15.50;93.30;;;;;;4954364;28;20877;-64
2021/12/30 10:48:50;;;;;;;3.08;1.10;;;15.50;93.30;;;;;;4955066;28;20263;-64
2021/12/30 10:51:19;;;;;;;5.90;1.17;;;15.50;93.30;;;;;;4958130;28;20160;-64
2021/12/30 10:53:46;;;;;;;6.43;1.30;;;15.50;93.40;;;;;;4964986;28;20065;-65
2021/12/30 10:56:30;;;;;;;5.40;1.30;;;15.50;93.40;;;;;;4967371;28;20036;-65
2021/12/30 10:59:07;;;;;;;4.57;1.08;;;15.40;93.20;;;;;;4995117;28;20491;-65
2021/12/30 11:01:38;;;;;;;6.40;1.30;;;15.40;93.40;;;;;;4965664;28;20645;-64
2021/12/30 11:04:04;;;;;;;6.05;1.10;;;15.40;93.30;;;;;;4954936;28;20080;-64
2021/12/30 11:06:29;;;;;;;7.18;1.15;;;15.50;93.60;;;;;;4954595;28;20032;-64
2021/12/30 11:09:06;;;;;;;4.65;1.10;;;15.50;93.40;;;;;;4950614;28;20035;-64
2021/12/30 11:11:31;;;;;;;5.65;1.15;;;15.50;93.30;;;;;;4965357;28;20043;-64
2021/12/30 11:14:07;;;;;;;4.40;0.88;;;15.50;93.20;;;;;;4954151;28;20030;-64
2021/12/30 11:16:50;;;;;;;4.85;1.13;;;15.50;93.30;;;;;;4954773;28;20492;-65
2021/12/30 11:19:17;;;;;;;3.45;0.98;;;15.50;93.10;;;;;;4954708;28;20042;-65
2021/12/30 11:21:44;;;;;;;4.22;0.98;;;15.50;93.60;;;;;;4954513;28;20546;-65
2021/12/30 11:24:11;;;;;;;4.43;1.00;;;15.50;93.30;;;;;;4954646;28;20031;-65
2021/12/30 11:26:37;;;;;;;4.53;1.48;;;15.50;93.10;;;;;;4952554;28;20023;-65
2021/12/30 11:29:05;;;;;;;5.50;1.13;;;15.50;93.20;;;;;;4951198;28;20034;-65
2021/12/30 11:31:32;;;;;;;6.22;1.05;;;15.40;92.90;;;;;;4956081;28;20036;-65
2021/12/30 11:33:59;;;;;;;5.20;1.08;;;15.50;93.00;;;;;;4954567;28;20054;-65
2021/12/30 11:36:28;;;;;;;2.97;0.95;;;15.50;93.10;;;;;;4950728;28;20035;-65
2021/12/30 11:38:58;;;;;;;5.30;1.27;;;15.50;93.10;;;;;;4952133;28;20023;-64
2021/12/30 11:41:26;;;;;;;4.10;1.02;;;15.60;92.70;;;;;;4939495;28;20039;-65
2021/12/30 11:43:51;;;;;;;4.47;1.02;;;15.50;93.00;;;;;;4948466;28;20038;-65
2021/12/30 11:46:41;;;;;;;6.97;1.13;;;15.60;93.10;;;;;;4950322;28;20043;-65
2021/12/30 11:49:09;;;;;;;3.60;0.80;;;15.60;93.10;;;;;;4949605;28;20031;-65
2021/12/30 11:51:52;;;;;;;7.60;1.48;;;15.60;92.90;;;;;;4954415;28;20023;-65
2021/12/30 11:54:41;;;;;;;3.72;1.02;;;15.60;92.90;;;;;;4951623;28;20019;-65
2021/12/30 11:57:28;;;;;;;5.25;1.10;;;15.70;93.20;;;;;;4940970;28;20030;-65
2021/12/30 11:59:57;;;;;;;7.65;1.13;;;15.70;93.00;;;;;;4948864;28;20443;-64
2021/12/30 12:02:34;;;;;;;4.85;1.02;;;15.70;92.80;;;;;;4934747;28;20028;-64
2021/12/30 12:05:40;;;;;;;5.32;1.17;;;15.70;92.70;;;;;;4953129;28;20058;-64
2021/12/30 12:08:11;;;;;;;5.47;1.10;;;15.70;92.80;;;;;;4963659;28;20026;-65
2021/12/30 12:10:40;;;;;;;4.40;1.05;;;15.70;92.70;;;;;;4953988;28;20050;-66
2021/12/30 12:13:31;;;;;;;8.00;1.00;;;15.70;92.80;;;;;;4953120;28;20054;-65
2021/12/30 12:15:57;;;;;;;3.80;0.77;;;15.70;92.80;;;;;;4953681;28;20034;-65
2021/12/30 12:18:24;;;;;;;5.28;0.90;;;15.60;92.70;;;;;;4952219;28;20035;-65
2021/12/30 12:20:52;;;;;;;4.60;0.95;;;15.60;92.90;;;;;;4953160;28;20042;-65
2021/12/30 12:23:37;;;;;;;4.20;1.00;;;15.60;92.70;;;;;;4949567;28;20158;-64
2021/12/30 12:26:16;;;;;;;5.28;1.08;;;15.60;92.80;;;;;;4962936;28;20084;-64
2021/12/30 12:28:43;;;;;;;3.22;0.88;;;15.70;92.90;;;;;;4976974;28;20372;-65
2021/12/30 12:31:11;;;;;;;4.47;0.90;;;15.60;92.70;;;;;;4963143;28;20113;-65
2021/12/30 12:33:39;;;;;;;3.40;0.90;;;15.60;92.80;;;;;;4957936;28;20267;-64
2021/12/30 12:36:34;;;;;;;3.58;0.90;;;15.60;92.70;;;;;;4951974;28;20084;-65
2021/12/30 12:38:59;;;;;;;3.45;0.90;;;15.70;92.90;;;;;;4955062;28;20039;-65
2021/12/30 12:41:28;;;;;;;4.03;0.70;;;15.70;92.80;;;;;;4948918;28;20093;-65
2021/12/30 12:44:03;;;;;;;4.05;0.75;;;15.80;92.70;;;;;;4957087;28;20576;-65
2021/12/30 12:46:45;;;;;;;5.45;0.80;;;15.80;92.80;;;;;;4954633;28;20395;-65